createdAt,value
2022-09-23T00:01:22.625Z,99184.22
2022-09-23T00:03:50.252Z,99176.34
2022-09-23T00:06:24.684Z,99180.88
2022-09-23T00:08:52.547Z,99185.13
2022-09-23T00:11:26.827Z,99182.03
2022-09-23T00:13:58.578Z,99174.63
2022-09-23T00:16:30.941Z,99181.97
2022-09-23T00:18:58.685Z,99176.84
2022-09-23T00:21:26.631Z,99173.69
2022-09-23T00:23:54.115Z,99171.63
2022-09-23T00:26:23.382Z,99166.16
2022-09-23T00:28:51.797Z,99173.41
2022-09-23T00:31:23.449Z,99163.84
2022-09-23T00:34:01.743Z,99161.75
2022-09-23T00:36:32.152Z,99163.44
2022-09-23T00:39:00.093Z,99170.25
2022-09-23T00:41:28.067Z,99158.91
2022-09-23T00:43:59.268Z,99151.16
2022-09-23T00:46:35.532Z,99161.44
2022-09-23T00:49:14.444Z,99158.84
2022-09-23T00:51:58.510Z,99161.13
2022-09-23T00:54:27.696Z,99151.88
2022-09-23T00:56:57.608Z,99159.81
2022-09-23T00:59:26.188Z,99155.28
2022-09-23T01:01:57.600Z,99150.66
2022-09-23T01:04:28.712Z,99155.75
2022-09-23T01:06:56.204Z,99161.34
2022-09-23T01:09:25.320Z,99160.53
2022-09-23T01:12:12.742Z,99162.31
2022-09-23T01:14:48.427Z,99151.22
2022-09-23T01:17:37.397Z,99159.31
2022-09-23T01:21:17.636Z,99155.19
2022-09-23T01:24:08.927Z,99152.34
2022-09-23T01:27:01.619Z,99159.47
2022-09-23T01:29:46.932Z,99159.47
2022-09-23T01:32:17.445Z,99162.00
2022-09-23T01:35:18.275Z,99158.75
2022-09-23T01:38:16.841Z,99154.53
2022-09-23T01:41:09.904Z,99155.34
2022-09-23T01:43:48.858Z,99158.91
2022-09-23T01:46:54.342Z,99155.78
2022-09-23T01:49:53.427Z,99155.63
2022-09-23T01:52:32.859Z,99160.81
2022-09-23T01:55:27.976Z,99158.50
2022-09-23T01:58:12.151Z,99156.75
2022-09-23T02:00:53.260Z,99152.63
2022-09-23T02:03:55.286Z,99157.28
2022-09-23T02:06:35.102Z,99164.66
2022-09-23T02:09:14.270Z,99164.50
2022-09-23T02:11:46.405Z,99167.66
2022-09-23T02:14:30.698Z,99167.50
2022-09-23T02:17:13.055Z,99164.63
2022-09-23T02:19:53.396Z,99158.38
2022-09-23T02:22:52.007Z,99159.72
2022-09-23T02:25:25.976Z,99158.47
2022-09-23T02:28:19.031Z,99162.44
2022-09-23T02:31:04.964Z,99155.22
2022-09-23T02:33:44.206Z,99146.63
2022-09-23T02:36:56.123Z,99149.63
2022-09-23T02:39:37.211Z,99154.00
2022-09-23T02:42:15.210Z,99153.69
2022-09-23T02:44:42.741Z,99146.88
2022-09-23T02:47:10.607Z,99146.44
2022-09-23T02:49:38.182Z,99141.56
2022-09-23T02:52:07.619Z,99146.75
2022-09-23T02:54:36.791Z,99147.00
2022-09-23T02:57:08.269Z,99152.75
2022-09-23T02:59:37.127Z,99142.09
2022-09-23T03:02:26.884Z,99149.47
2022-09-23T03:05:09.367Z,99148.81
2022-09-23T03:08:02.881Z,99151.94
2022-09-23T03:10:43.859Z,99150.84
2022-09-23T03:13:35.200Z,99151.81
2022-09-23T03:16:44.535Z,99157.25
2022-09-23T03:19:42.272Z,99153.28
2022-09-23T03:22:21.498Z,99155.06
2022-09-23T03:24:54.010Z,99147.56
2022-09-23T03:27:29.980Z,99148.94
2022-09-23T03:29:58.757Z,99150.31
2022-09-23T03:32:29.193Z,99148.53
2022-09-23T03:35:01.130Z,99160.69
2022-09-23T03:37:44.779Z,99147.16
2022-09-23T03:40:17.688Z,99154.78
2022-09-23T03:42:48.864Z,99159.97
2022-09-23T03:45:22.669Z,99158.50
2022-09-23T03:47:50.182Z,99149.75
2022-09-23T03:50:17.951Z,99157.13
2022-09-23T03:52:46.391Z,99165.69
2022-09-23T03:55:13.986Z,99162.53
2022-09-23T03:57:41.547Z,99155.34
2022-09-23T04:00:10.338Z,99159.41
2022-09-23T04:02:41.360Z,99161.22
2022-09-23T04:05:13.343Z,99165.03
2022-09-23T04:07:41.342Z,99159.03
2022-09-23T04:10:10.007Z,99166.97
2022-09-23T04:12:38.294Z,99170.91
2022-09-23T04:15:06.739Z,99160.81
2022-09-23T04:17:34.275Z,99173.75
2022-09-23T04:20:02.293Z,99162.16
2022-09-23T04:22:29.727Z,99166.78
2022-09-23T04:24:57.364Z,99165.97
2022-09-23T04:27:24.821Z,99176.09
2022-09-23T04:29:52.309Z,99170.91
2022-09-23T04:32:19.760Z,99162.31
2022-09-23T04:34:47.185Z,99174.44
2022-09-23T04:37:14.696Z,99167.63
2022-09-23T04:39:43.279Z,99161.59
2022-09-23T04:42:10.862Z,99166.78
2022-09-23T04:44:38.929Z,99166.78
2022-09-23T04:47:06.713Z,99172.13
2022-09-23T04:49:34.318Z,99166.28
2022-09-23T04:52:02.796Z,99164.06
2022-09-23T04:54:30.142Z,99174.19
2022-09-23T04:56:57.680Z,99168.75
2022-09-23T04:59:25.181Z,99165.34
2022-09-23T05:01:54.398Z,99170.66
2022-09-23T05:04:22.029Z,99169.28
2022-09-23T05:06:49.488Z,99175.28
2022-09-23T05:09:17.730Z,99179.91
2022-09-23T05:11:45.997Z,99172.63
2022-09-23T05:14:13.797Z,99182.22
2022-09-23T05:16:41.589Z,99179.53
2022-09-23T05:19:09.182Z,99183.72
2022-09-23T05:21:37.796Z,99179.28
2022-09-23T05:24:05.617Z,99176.31
2022-09-23T05:26:33.457Z,99183.84
2022-09-23T05:29:01.093Z,99182.75
2022-09-23T05:31:30.711Z,99180.16
2022-09-23T05:34:01.908Z,99183.09
2022-09-23T05:36:37.919Z,99182.75
2022-09-23T05:39:08.657Z,99185.25
2022-09-23T05:41:37.038Z,99176.69
2022-09-23T05:44:04.997Z,99187.41
2022-09-23T05:46:33.326Z,99182.53
2022-09-23T05:49:03.453Z,99185.50
2022-09-23T05:51:34.723Z,99185.84
2022-09-23T05:54:04.360Z,99176.53
2022-09-23T05:56:33.814Z,99184.00
2022-09-23T05:59:03.248Z,99181.31
2022-09-23T06:01:35.640Z,99175.59
2022-09-23T06:04:06.004Z,99180.50
2022-09-23T06:06:42.696Z,99189.13
2022-09-23T06:09:13.889Z,99187.34
2022-09-23T06:11:42.540Z,99184.56
2022-09-23T06:14:14.804Z,99184.13
2022-09-23T06:16:43.146Z,99181.06
2022-09-23T06:19:11.118Z,99184.13
2022-09-23T06:21:40.927Z,99176.75
2022-09-23T06:24:11.227Z,99177.59
2022-09-23T06:26:41.136Z,99187.53
2022-09-23T06:29:14.476Z,99187.88
2022-09-23T06:31:43.354Z,99186.69
2022-09-23T06:34:14.348Z,99177.31
2022-09-23T06:36:45.399Z,99176.56
2022-09-23T06:39:16.552Z,99180.09
2022-09-23T06:41:45.264Z,99192.31
2022-09-23T06:44:15.193Z,99186.31
2022-09-23T06:46:43.245Z,99189.00
2022-09-23T06:49:13.320Z,99182.84
2022-09-23T06:51:41.514Z,99190.34
2022-09-23T06:54:09.444Z,99180.50
2022-09-23T06:56:39.447Z,99191.44
2022-09-23T06:59:13.012Z,99193.50
2022-09-23T07:01:40.734Z,99187.16
2022-09-23T07:04:10.610Z,99189.88
2022-09-23T07:06:38.158Z,99188.47
2022-09-23T07:09:07.894Z,99187.28
2022-09-23T07:11:35.345Z,99188.00
2022-09-23T07:14:02.914Z,99182.91
2022-09-23T07:16:31.638Z,99181.25
2022-09-23T07:18:59.617Z,99188.59
2022-09-23T07:21:27.847Z,99199.38
2022-09-23T07:23:58.053Z,99194.56
2022-09-23T07:26:26.296Z,99187.97
2022-09-23T07:28:56.648Z,99197.22
2022-09-23T07:31:37.831Z,99192.44
2022-09-23T07:34:11.335Z,99198.53
2022-09-23T07:36:40.685Z,99188.00
2022-09-23T07:39:12.606Z,99190.78
2022-09-23T07:41:41.745Z,99200.44
2022-09-23T07:44:11.862Z,99195.69
2022-09-23T07:46:40.065Z,99197.44
2022-09-23T07:49:07.998Z,99190.66
2022-09-23T07:51:38.834Z,99190.69
2022-09-23T07:54:09.935Z,99181.53
2022-09-23T07:56:38.779Z,99188.84
2022-09-23T07:59:09.297Z,99190.34
2022-09-23T08:01:41.501Z,99197.34
2022-09-23T08:04:17.965Z,99189.16
2022-09-23T08:06:59.224Z,99196.09
2022-09-23T08:09:35.612Z,99204.03
2022-09-23T08:12:03.581Z,99201.38
2022-09-23T08:14:31.072Z,99193.97
2022-09-23T08:16:58.532Z,99182.03
2022-09-23T08:19:26.087Z,99175.59
2022-09-23T08:21:54.459Z,99180.44
2022-09-23T08:24:24.239Z,99184.72
2022-09-23T08:26:53.363Z,99206.25
2022-09-23T08:29:24.907Z,99198.25
2022-09-23T08:31:53.792Z,99198.47
2022-09-23T08:34:23.748Z,99187.13
2022-09-23T08:36:52.409Z,99177.16
2022-09-23T08:39:21.247Z,99183.34
2022-09-23T08:42:07.140Z,99187.97
2022-09-23T08:44:45.311Z,99194.66
2022-09-23T08:47:12.665Z,99200.44
2022-09-23T08:50:22.016Z,99178.41
2022-09-23T08:52:55.958Z,99195.25
2022-09-23T08:55:42.030Z,99188.31
2022-09-23T08:58:53.545Z,99190.44
2022-09-23T09:01:45.915Z,99198.41
2022-09-23T09:04:19.225Z,99198.50
2022-09-23T09:07:24.585Z,99186.13
2022-09-23T09:10:24.933Z,99161.28
2022-09-23T09:13:28.706Z,99173.94
2022-09-23T09:16:42.138Z,99174.81
2022-09-23T09:19:21.747Z,99170.06
2022-09-23T09:21:55.513Z,99173.78
2022-09-23T09:24:34.826Z,99166.03
2022-09-23T09:27:12.527Z,99175.81
2022-09-23T09:29:49.713Z,99178.16
2022-09-23T09:32:46.269Z,99179.88
2022-09-23T09:35:33.440Z,99154.47
2022-09-23T09:38:01.825Z,99152.66
2022-09-23T09:40:29.852Z,99147.31
2022-09-23T09:42:57.748Z,99143.88
2022-09-23T09:45:57.761Z,99146.31
2022-09-23T09:48:40.071Z,99158.50
2022-09-23T09:51:21.514Z,99163.16
2022-09-23T09:53:53.053Z,99146.63
2022-09-23T09:56:42.072Z,99147.53
2022-09-23T09:59:16.531Z,99128.97
2022-09-23T10:01:46.194Z,99132.88
2022-09-23T10:04:24.908Z,99126.41
2022-09-23T10:07:13.093Z,99122.94
2022-09-23T10:09:50.281Z,99126.22
2022-09-23T10:12:24.512Z,99119.97
2022-09-23T10:14:57.238Z,99136.41
2022-09-23T10:17:34.344Z,99143.09
2022-09-23T10:20:09.059Z,99153.09
2022-09-23T10:22:42.379Z,99151.47
2022-09-23T10:25:20.734Z,99146.31
2022-09-23T10:27:48.272Z,99156.53
2022-09-23T10:30:23.092Z,99154.72
2022-09-23T10:32:54.950Z,99151.81
2022-09-23T10:35:25.481Z,99142.44
2022-09-23T10:37:56.155Z,99134.63
2022-09-23T10:40:47.908Z,99135.59
2022-09-23T10:44:02.873Z,99126.22
2022-09-23T10:46:48.527Z,99113.31
2022-09-23T10:49:57.134Z,99113.13
2022-09-23T10:52:36.428Z,99108.41
2022-09-23T10:55:56.725Z,99115.59
2022-09-23T10:59:02.363Z,99117.56
2022-09-23T11:02:19.160Z,99118.94
2022-09-23T11:05:06.482Z,99119.00
2022-09-23T11:07:44.880Z,99115.88
2022-09-23T11:10:44.975Z,99113.44
2022-09-23T11:13:54.613Z,99113.72
2022-09-23T11:16:39.113Z,99113.63
2022-09-23T11:19:44.724Z,99120.19
2022-09-23T11:22:37.963Z,99110.56
2022-09-23T11:25:30.297Z,99102.00
2022-09-23T11:29:02.427Z,99098.31
2022-09-23T11:31:59.730Z,99079.84
2022-09-23T11:34:27.193Z,99078.28
2022-09-23T11:37:06.867Z,99066.97
2022-09-23T11:39:51.339Z,99063.47
2022-09-23T11:42:31.730Z,99075.78
2022-09-23T11:45:08.593Z,99069.53
2022-09-23T11:47:48.740Z,99067.34
2022-09-23T11:50:25.829Z,99079.31
2022-09-23T11:53:40.751Z,99083.78
2022-09-23T11:56:40.071Z,99093.06
2022-09-23T11:59:40.531Z,99087.25
2022-09-23T12:02:30.235Z,99084.38
2022-09-23T12:05:13.987Z,99087.63
2022-09-23T12:08:17.879Z,99079.41
2022-09-23T12:11:25.683Z,99077.69
2022-09-23T12:14:10.958Z,99066.88
2022-09-23T12:17:22.151Z,99050.03
2022-09-23T12:20:33.993Z,99061.78
2022-09-23T12:23:47.444Z,99060.63
2022-09-23T12:26:20.262Z,99053.53
2022-09-23T12:28:52.988Z,99056.72
2022-09-23T12:31:30.669Z,99058.47
2022-09-23T12:34:01.051Z,99056.88
2022-09-23T12:36:36.316Z,99050.75
2022-09-23T12:39:13.962Z,99049.28
2022-09-23T12:41:46.308Z,99043.50
2022-09-23T12:44:31.847Z,99040.13
2022-09-23T12:47:25.443Z,99037.88
2022-09-23T12:49:54.013Z,99033.47
2022-09-23T12:52:33.480Z,99026.72
2022-09-23T12:55:23.331Z,99024.91
2022-09-23T12:57:50.865Z,99020.13
2022-09-23T13:00:26.859Z,99013.41
2022-09-23T13:03:18.602Z,99010.75
2022-09-23T13:06:35.734Z,99008.81
2022-09-23T13:09:03.530Z,99010.13
2022-09-23T13:11:33.203Z,99008.66
2022-09-23T13:14:05.338Z,99000.94
2022-09-23T13:16:45.935Z,98998.47
2022-09-23T13:19:28.448Z,99004.81
2022-09-23T13:22:11.063Z,98995.22
2022-09-23T13:24:52.201Z,99008.38
2022-09-23T13:27:33.867Z,98999.81
2022-09-23T13:30:25.116Z,98999.31
2022-09-23T13:33:24.118Z,98995.16
2022-09-23T13:35:57.988Z,99001.44
2022-09-23T13:38:31.742Z,98999.47
2022-09-23T13:41:15.435Z,99002.16
2022-09-23T13:43:50.948Z,99001.28
2022-09-23T13:46:40.006Z,98992.31
2022-09-23T13:49:24.406Z,98991.56
2022-09-23T13:51:54.156Z,98997.56
2022-09-23T13:54:46.515Z,98986.53
2022-09-23T13:57:33.848Z,98981.84
2022-09-23T14:00:19.419Z,98986.38
2022-09-23T14:02:47.342Z,98978.72
2022-09-23T14:05:27.612Z,98975.31
2022-09-23T14:07:57.016Z,98966.41
2022-09-23T14:10:27.660Z,98976.22
2022-09-23T14:12:56.568Z,98972.03
2022-09-23T14:15:24.386Z,98971.50
2022-09-23T14:18:06.279Z,98965.94
2022-09-23T14:20:50.242Z,98966.72
2022-09-23T14:23:17.787Z,98967.06
2022-09-23T14:25:47.033Z,98959.91
2022-09-23T14:28:23.924Z,98961.69
2022-09-23T14:30:58.407Z,98966.06
2022-09-23T14:33:32.238Z,98959.75
2022-09-23T14:36:31.050Z,98957.31
2022-09-23T14:39:09.074Z,98960.41
2022-09-23T14:41:42.637Z,98958.13
2022-09-23T14:44:25.080Z,98953.50
2022-09-23T14:46:59.839Z,98952.84
2022-09-23T14:49:27.958Z,98956.06
2022-09-23T14:52:05.709Z,98955.09
2022-09-23T14:54:41.361Z,98954.69
2022-09-23T14:57:24.093Z,98955.19
2022-09-23T14:59:59.705Z,98948.84
2022-09-23T15:02:40.208Z,98941.94
2022-09-23T15:05:10.350Z,98945.41
2022-09-23T15:07:38.880Z,98948.88
2022-09-23T15:10:37.515Z,98945.41
2022-09-23T15:13:15.427Z,98944.50
2022-09-23T15:15:44.258Z,98937.16
2022-09-23T15:18:34.707Z,98939.16
2022-09-23T15:21:13.364Z,98938.25
2022-09-23T15:23:50.066Z,98942.69
2022-09-23T15:26:40.623Z,98933.94
2022-09-23T15:29:10.092Z,98935.59
2022-09-23T15:31:37.712Z,98925.84
2022-09-23T15:34:05.656Z,98932.97
2022-09-23T15:36:33.319Z,98923.84
2022-09-23T15:39:08.612Z,98926.69
2022-09-23T15:41:36.123Z,98926.50
2022-09-23T15:44:14.062Z,98925.25
2022-09-23T15:46:51.854Z,98933.38
2022-09-23T15:49:38.958Z,98935.94
2022-09-23T15:52:09.711Z,98936.09
2022-09-23T15:54:37.824Z,98939.91
2022-09-23T15:57:05.427Z,98937.47
2022-09-23T15:59:33.035Z,98937.56
2022-09-23T16:02:07.891Z,98934.91
2022-09-23T16:04:36.036Z,98931.41
2022-09-23T16:07:04.969Z,98946.19
2022-09-23T16:09:32.427Z,98947.56
2022-09-23T16:12:02.123Z,98951.53
2022-09-23T16:14:29.537Z,98949.00
2022-09-23T16:16:57.591Z,98946.84
2022-09-23T16:19:25.708Z,98951.97
2022-09-23T16:21:53.232Z,98950.03
2022-09-23T16:24:27.348Z,98945.22
2022-09-23T16:26:59.998Z,98952.19
2022-09-23T16:29:27.662Z,98945.81
2022-09-23T16:31:55.720Z,98949.00
2022-09-23T16:34:23.281Z,98951.09
2022-09-23T16:36:50.739Z,98951.56
2022-09-23T16:39:20.554Z,98953.97
2022-09-23T16:41:48.036Z,98958.34
2022-09-23T16:44:16.347Z,98957.31
2022-09-23T16:46:43.646Z,98959.44
2022-09-23T16:49:14.198Z,98956.34
2022-09-23T16:51:42.025Z,98955.63
2022-09-23T16:54:12.258Z,98958.94
2022-09-23T16:56:46.374Z,98969.94
2022-09-23T16:59:16.067Z,98958.84
2022-09-23T17:02:02.811Z,98972.03
2022-09-23T17:04:30.414Z,98964.69
2022-09-23T17:06:58.075Z,98965.75
2022-09-23T17:09:28.516Z,98983.63
2022-09-23T17:12:27.789Z,98985.25
2022-09-23T17:14:55.561Z,98991.94
2022-09-23T17:17:23.075Z,98992.16
2022-09-23T17:19:50.502Z,98989.91
2022-09-23T17:22:17.988Z,98991.19
2022-09-23T17:24:45.562Z,98981.97
2022-09-23T17:27:13.401Z,98990.81
2022-09-23T17:29:40.863Z,98995.88
2022-09-23T17:32:09.480Z,98995.41
2022-09-23T17:34:36.933Z,98997.75
2022-09-23T17:37:04.476Z,99000.53
2022-09-23T17:39:31.937Z,99012.63
2022-09-23T17:41:59.457Z,99003.41
2022-09-23T17:44:26.969Z,99019.31
2022-09-23T17:46:54.448Z,99018.31
2022-09-23T17:49:24.187Z,99021.47
2022-09-23T17:51:51.699Z,99026.56
2022-09-23T17:54:19.236Z,99023.31
2022-09-23T17:56:46.787Z,99031.66
2022-09-23T17:59:14.291Z,99024.00
2022-09-23T18:01:42.088Z,99027.50
2022-09-23T18:04:09.679Z,99031.91
2022-09-23T18:06:38.079Z,99040.09
2022-09-23T18:09:08.494Z,99039.81
2022-09-23T18:11:43.060Z,99042.25
2022-09-23T18:14:22.787Z,99041.81
2022-09-23T18:16:53.676Z,99045.91
2022-09-23T18:19:24.376Z,99049.81
2022-09-23T18:21:57.217Z,99054.22
2022-09-23T18:24:32.185Z,99050.34
2022-09-23T18:27:01.650Z,99046.25
2022-09-23T18:29:29.424Z,99046.09
2022-09-23T18:31:57.029Z,99045.78
2022-09-23T18:34:25.306Z,99049.22
2022-09-23T18:36:55.958Z,99051.53
2022-09-23T18:39:23.502Z,99042.88
2022-09-23T18:41:51.070Z,99062.16
2022-09-23T18:44:19.912Z,99051.38
2022-09-23T18:46:47.381Z,99057.56
2022-09-23T18:49:33.565Z,99060.84
2022-09-23T18:52:01.375Z,99058.75
2022-09-23T18:54:29.371Z,99053.34
2022-09-23T18:56:59.090Z,99058.22
2022-09-23T18:59:33.458Z,99052.69
2022-09-23T19:02:01.192Z,99054.16
2022-09-23T19:04:29.083Z,99056.28
2022-09-23T19:06:57.897Z,99055.00
2022-09-23T19:09:25.528Z,99051.41
2022-09-23T19:11:53.795Z,99060.53
2022-09-23T19:14:21.483Z,99065.41
2022-09-23T19:16:49.600Z,99063.75
2022-09-23T19:19:17.481Z,99060.00
2022-09-23T19:21:45.190Z,99062.94
2022-09-23T19:24:15.959Z,99060.63
2022-09-23T19:26:44.498Z,99063.59
2022-09-23T19:29:19.554Z,99060.81
2022-09-23T19:31:48.730Z,99063.06
2022-09-23T19:34:19.808Z,99064.88
2022-09-23T19:36:47.821Z,99066.97
2022-09-23T19:39:17.268Z,99066.47
2022-09-23T19:41:46.090Z,99063.69
2022-09-23T19:44:14.587Z,99065.28
2022-09-23T19:46:45.205Z,99062.31
2022-09-23T19:49:13.650Z,99071.41
2022-09-23T19:51:41.343Z,99071.88
2022-09-23T19:54:09.164Z,99075.13
2022-09-23T19:56:37.624Z,99073.31
2022-09-23T19:59:09.241Z,99071.34
2022-09-23T20:01:37.343Z,99072.97
2022-09-23T20:04:05.709Z,99070.88
2022-09-23T20:06:38.531Z,99075.84
2022-09-23T20:09:06.224Z,99070.66
2022-09-23T20:11:34.574Z,99073.41
2022-09-23T20:14:04.821Z,99074.22
2022-09-23T20:16:35.917Z,99070.28
2022-09-23T20:19:22.768Z,99066.88
2022-09-23T20:22:10.211Z,99075.66
2022-09-23T20:24:37.714Z,99066.22
2022-09-23T20:27:11.115Z,99073.06
2022-09-23T20:29:38.654Z,99073.22
2022-09-23T20:32:06.140Z,99075.03
2022-09-23T20:34:33.660Z,99062.16
2022-09-23T20:37:01.256Z,99067.97
2022-09-23T20:39:28.755Z,99066.03
2022-09-23T20:41:56.283Z,99065.03
2022-09-23T20:44:23.798Z,99065.69
2022-09-23T20:46:51.846Z,99053.31
2022-09-23T20:49:20.781Z,99057.00
2022-09-23T20:51:49.132Z,99058.13
2022-09-23T20:54:20.380Z,99063.81
2022-09-23T20:56:48.091Z,99053.72
2022-09-23T20:59:17.701Z,99060.69
2022-09-23T21:01:47.571Z,99059.03
2022-09-23T21:04:15.714Z,99059.56
2022-09-23T21:06:43.267Z,99064.94
2022-09-23T21:09:10.699Z,99055.78
2022-09-23T21:11:38.180Z,99070.09
2022-09-23T21:14:06.025Z,99068.16
2022-09-23T21:16:33.865Z,99067.13
2022-09-23T21:19:03.186Z,99066.75
2022-09-23T21:21:30.685Z,99059.09
2022-09-23T21:24:24.475Z,99069.69
2022-09-23T21:26:48.962Z,99056.78
2022-09-23T21:29:17.029Z,99053.38
2022-09-23T21:31:44.983Z,99055.16
2022-09-23T21:34:14.475Z,99050.66
2022-09-23T21:36:43.346Z,99054.69
2022-09-23T21:39:12.137Z,99053.34
2022-09-23T21:41:40.104Z,99054.31
2022-09-23T21:44:08.636Z,99048.13
2022-09-23T21:46:36.854Z,99048.94
2022-09-23T21:49:04.981Z,99042.94
2022-09-23T21:51:41.130Z,99050.09
2022-09-23T21:54:16.949Z,99055.28
2022-09-23T21:56:44.914Z,99058.84
2022-09-23T21:59:12.943Z,99049.41
2022-09-23T22:01:45.006Z,99050.09
2022-09-23T22:04:18.828Z,99055.88
2022-09-23T22:06:48.781Z,99057.53
2022-09-23T22:09:20.735Z,99054.25
2022-09-23T22:12:09.692Z,99051.28
2022-09-23T22:14:38.884Z,99055.66
2022-09-23T22:17:10.347Z,99050.81
2022-09-23T22:19:42.999Z,99049.03
2022-09-23T22:22:18.123Z,99052.44
2022-09-23T22:24:47.228Z,99050.16
2022-09-23T22:27:19.757Z,99050.00
2022-09-23T22:30:06.315Z,99039.59
2022-09-23T22:32:52.918Z,99046.06
2022-09-23T22:35:22.503Z,99036.63
2022-09-23T22:37:50.483Z,99039.03
2022-09-23T22:40:18.146Z,99040.50
2022-09-23T22:42:45.822Z,99037.25
2022-09-23T22:45:13.724Z,99046.84
2022-09-23T22:47:44.968Z,99051.88
2022-09-23T22:50:14.677Z,99055.63
2022-09-23T22:52:42.728Z,99058.00
2022-09-23T22:55:11.294Z,99052.00
2022-09-23T22:57:38.826Z,99053.38
2022-09-23T23:00:07.797Z,99055.97
2022-09-23T23:02:35.278Z,99048.66
2022-09-23T23:05:02.989Z,99053.69
2022-09-23T23:07:30.413Z,99056.28
2022-09-23T23:09:58.152Z,99056.28
2022-09-23T23:12:25.684Z,99044.91
2022-09-23T23:14:53.322Z,99049.47
2022-09-23T23:17:21.785Z,99048.50
2022-09-23T23:19:50.568Z,99038.75
2022-09-23T23:22:18.256Z,99033.69
2022-09-23T23:24:45.795Z,99043.28
2022-09-23T23:27:13.276Z,99041.66
2022-09-23T23:29:40.687Z,99040.69
2022-09-23T23:32:09.734Z,99034.84
2022-09-23T23:34:37.265Z,99032.97
2022-09-23T23:37:04.760Z,99035.34
2022-09-23T23:39:33.928Z,99040.19
2022-09-23T23:42:01.395Z,99034.16
2022-09-23T23:44:31.150Z,99034.31
2022-09-23T23:46:58.643Z,99030.66
2022-09-23T23:49:26.154Z,99027.56
2022-09-23T23:51:53.701Z,99028.91
2022-09-23T23:54:21.228Z,99023.81
2022-09-23T23:56:48.935Z,99023.00
2022-09-23T23:59:16.346Z,99024.81
